sensor_id;sensor_type;location;lat;lon;timestamp;P1;durP1;ratioP1;P2;durP2;ratioP2
69363;SDS011;56526;55.406;86.130;2022-10-30T00:00:43;18.30;;;6.47;;
69363;SDS011;56526;55.406;86.130;2022-10-30T00:03:11;14.57;;;11.50;;
69363;SDS011;56526;55.406;86.130;2022-10-30T00:05:40;13.40;;;10.60;;
69363;SDS011;56526;55.406;86.130;2022-10-30T00:08:12;15.10;;;11.15;;
69363;SDS011;56526;55.406;86.130;2022-10-30T00:10:41;15.43;;;7.55;;
69363;SDS011;56526;55.406;86.130;2022-10-30T00:13:12;13.77;;;8.90;;
69363;SDS011;56526;55.406;86.130;2022-10-30T00:15:39;17.83;;;11.43;;
69363;SDS011;56526;55.406;86.130;2022-10-30T00:18:15;13.85;;;9.70;;
69363;SDS011;56526;55.406;86.130;2022-10-30T00:20:41;16.98;;;11.95;;
69363;SDS011;56526;55.406;86.130;2022-10-30T00:23:07;17.65;;;7.97;;
69363;SDS011;56526;55.406;86.130;2022-10-30T00:25:34;14.63;;;11.13;;
69363;SDS011;56526;55.406;86.130;2022-10-30T00:28:05;16.30;;;12.23;;
69363;SDS011;56526;55.406;86.130;2022-10-30T00:30:32;19.67;;;9.77;;
69363;SDS011;56526;55.406;86.130;2022-10-30T00:33:01;13.45;;;6.35;;
69363;SDS011;56526;55.406;86.130;2022-10-30T00:35:28;13.10;;;6.07;;
69363;SDS011;56526;55.406;86.130;2022-10-30T00:37:55;15.00;;;9.23;;
69363;SDS011;56526;55.406;86.130;2022-10-30T00:40:21;16.67;;;9.75;;
69363;SDS011;56526;55.406;86.130;2022-10-30T00:42:48;18.27;;;11.50;;
69363;SDS011;56526;55.406;86.130;2022-10-30T00:45:15;12.57;;;5.63;;
69363;SDS011;56526;55.406;86.130;2022-10-30T00:47:44;13.60;;;10.07;;
69363;SDS011;56526;55.406;86.130;2022-10-30T00:50:24;11.75;;;6.20;;
69363;SDS011;56526;55.406;86.130;2022-10-30T00:53:06;17.52;;;11.15;;
69363;SDS011;56526;55.406;86.130;2022-10-30T00:55:36;12.02;;;9.63;;
69363;SDS011;56526;55.406;86.130;2022-10-30T00:58:25;12.15;;;6.55;;
69363;SDS011;56526;55.406;86.130;2022-10-30T01:01:06;16.15;;;7.15;;
69363;SDS011;56526;55.406;86.130;2022-10-30T01:03:36;15.25;;;10.57;;
69363;SDS011;56526;55.406;86.130;2022-10-30T01:06:05;17.65;;;10.23;;
69363;SDS011;56526;55.406;86.130;2022-10-30T01:08:36;12.40;;;5.95;;
69363;SDS011;56526;55.406;86.130;2022-10-30T01:11:03;15.95;;;7.18;;
69363;SDS011;56526;55.406;86.130;2022-10-30T01:13:31;14.82;;;10.98;;
69363;SDS011;56526;55.406;86.130;2022-10-30T01:16:13;15.30;;;10.93;;
69363;SDS011;56526;55.406;86.130;2022-10-30T01:18:58;16.30;;;11.82;;
69363;SDS011;56526;55.406;86.130;2022-10-30T01:21:47;12.52;;;8.82;;
69363;SDS011;56526;55.406;86.130;2022-10-30T01:36:46;13.02;;;10.10;;
69363;SDS011;56526;55.406;86.130;2022-10-30T01:39:29;14.18;;;10.27;;
69363;SDS011;56526;55.406;86.130;2022-10-30T01:42:07;13.85;;;10.95;;
69363;SDS011;56526;55.406;86.130;2022-10-30T01:44:35;14.45;;;9.55;;
69363;SDS011;56526;55.406;86.130;2022-10-30T01:50:06;15.35;;;10.30;;
69363;SDS011;56526;55.406;86.130;2022-10-30T01:56:24;14.05;;;10.02;;
69363;SDS011;56526;55.406;86.130;2022-10-30T01:59:15;14.48;;;10.88;;
69363;SDS011;56526;55.406;86.130;2022-10-30T02:02:01;17.60;;;13.45;;
69363;SDS011;56526;55.406;86.130;2022-10-30T02:04:28;15.68;;;11.18;;
69363;SDS011;56526;55.406;86.130;2022-10-30T02:06:56;14.55;;;10.05;;
69363;SDS011;56526;55.406;86.130;2022-10-30T02:09:23;17.50;;;9.88;;
69363;SDS011;56526;55.406;86.130;2022-10-30T02:11:50;13.57;;;9.95;;
69363;SDS011;56526;55.406;86.130;2022-10-30T02:14:22;13.90;;;10.38;;
69363;SDS011;56526;55.406;86.130;2022-10-30T02:16:53;14.15;;;10.40;;
69363;SDS011;56526;55.406;86.130;2022-10-30T02:19:23;15.68;;;6.38;;
69363;SDS011;56526;55.406;86.130;2022-10-30T02:21:50;17.00;;;11.40;;
69363;SDS011;56526;55.406;86.130;2022-10-30T02:24:16;15.30;;;11.13;;
69363;SDS011;56526;55.406;86.130;2022-10-30T02:26:43;17.30;;;10.90;;
69363;SDS011;56526;55.406;86.130;2022-10-30T02:29:10;13.15;;;9.00;;
69363;SDS011;56526;55.406;86.130;2022-10-30T02:31:36;13.93;;;9.80;;
69363;SDS011;56526;55.406;86.130;2022-10-30T02:34:02;13.68;;;10.68;;
69363;SDS011;56526;55.406;86.130;2022-10-30T02:36:30;14.93;;;11.23;;
69363;SDS011;56526;55.406;86.130;2022-10-30T02:38:57;13.93;;;11.93;;
69363;SDS011;56526;55.406;86.130;2022-10-30T02:41:23;13.38;;;6.03;;
69363;SDS011;56526;55.406;86.130;2022-10-30T02:43:50;16.17;;;10.90;;
69363;SDS011;56526;55.406;86.130;2022-10-30T02:46:18;17.98;;;12.30;;
69363;SDS011;56526;55.406;86.130;2022-10-30T02:48:44;12.15;;;7.43;;
69363;SDS011;56526;55.406;86.130;2022-10-30T02:51:10;14.35;;;9.77;;
69363;SDS011;56526;55.406;86.130;2022-10-30T02:53:37;18.60;;;11.43;;
69363;SDS011;56526;55.406;86.130;2022-10-30T02:56:04;12.00;;;6.55;;
69363;SDS011;56526;55.406;86.130;2022-10-30T02:58:33;14.85;;;11.20;;
69363;SDS011;56526;55.406;86.130;2022-10-30T03:01:17;14.82;;;9.88;;
69363;SDS011;56526;55.406;86.130;2022-10-30T03:03:44;12.00;;;9.32;;
69363;SDS011;56526;55.406;86.130;2022-10-30T03:06:12;9.75;;;8.80;;
69363;SDS011;56526;55.406;86.130;2022-10-30T03:08:41;12.93;;;9.05;;
69363;SDS011;56526;55.406;86.130;2022-10-30T03:11:09;13.60;;;6.60;;
69363;SDS011;56526;55.406;86.130;2022-10-30T03:13:38;13.18;;;10.05;;
69363;SDS011;56526;55.406;86.130;2022-10-30T03:16:05;10.95;;;6.47;;
69363;SDS011;56526;55.406;86.130;2022-10-30T03:18:36;12.10;;;5.97;;
69363;SDS011;56526;55.406;86.130;2022-10-30T03:21:04;12.82;;;9.55;;
69363;SDS011;56526;55.406;86.130;2022-10-30T03:23:32;9.88;;;8.32;;
69363;SDS011;56526;55.406;86.130;2022-10-30T03:25:59;14.40;;;9.93;;
69363;SDS011;56526;55.406;86.130;2022-10-30T03:28:27;16.92;;;9.02;;
69363;SDS011;56526;55.406;86.130;2022-10-30T03:31:02;12.98;;;8.00;;
69363;SDS011;56526;55.406;86.130;2022-10-30T03:33:34;10.70;;;7.80;;
69363;SDS011;56526;55.406;86.130;2022-10-30T03:36:01;8.10;;;4.70;;
69363;SDS011;56526;55.406;86.130;2022-10-30T03:38:29;11.90;;;9.23;;
69363;SDS011;56526;55.406;86.130;2022-10-30T03:40:55;12.75;;;9.98;;
69363;SDS011;56526;55.406;86.130;2022-10-30T03:43:22;12.80;;;5.43;;
69363;SDS011;56526;55.406;86.130;2022-10-30T03:45:49;11.43;;;8.98;;
69363;SDS011;56526;55.406;86.130;2022-10-30T03:48:19;12.50;;;10.10;;
69363;SDS011;56526;55.406;86.130;2022-10-30T03:50:48;10.55;;;9.02;;
69363;SDS011;56526;55.406;86.130;2022-10-30T03:53:16;9.95;;;8.13;;
69363;SDS011;56526;55.406;86.130;2022-10-30T03:55:42;9.05;;;4.95;;
69363;SDS011;56526;55.406;86.130;2022-10-30T03:58:09;15.68;;;8.45;;
69363;SDS011;56526;55.406;86.130;2022-10-30T04:00:35;12.15;;;8.95;;
69363;SDS011;56526;55.406;86.130;2022-10-30T04:03:04;10.70;;;7.25;;
69363;SDS011;56526;55.406;86.130;2022-10-30T04:05:32;9.45;;;8.52;;
69363;SDS011;56526;55.406;86.130;2022-10-30T04:07:59;10.13;;;7.53;;
69363;SDS011;56526;55.406;86.130;2022-10-30T04:10:28;7.20;;;4.45;;
69363;SDS011;56526;55.406;86.130;2022-10-30T04:13:04;5.45;;;4.10;;
69363;SDS011;56526;55.406;86.130;2022-10-30T04:15:32;11.95;;;10.40;;
69363;SDS011;56526;55.406;86.130;2022-10-30T04:17:59;11.23;;;7.78;;
69363;SDS011;56526;55.406;86.130;2022-10-30T04:20:25;5.50;;;3.28;;
69363;SDS011;56526;55.406;86.130;2022-10-30T04:22:56;12.07;;;9.00;;
69363;SDS011;56526;55.406;86.130;2022-10-30T04:25:25;11.73;;;8.45;;
69363;SDS011;56526;55.406;86.130;2022-10-30T04:27:52;11.07;;;5.25;;
69363;SDS011;56526;55.406;86.130;2022-10-30T04:30:18;9.45;;;7.47;;
69363;SDS011;56526;55.406;86.130;2022-10-30T04:32:49;7.78;;;4.57;;
69363;SDS011;56526;55.406;86.130;2022-10-30T04:35:18;12.38;;;9.00;;
69363;SDS011;56526;55.406;86.130;2022-10-30T04:37:53;13.60;;;8.10;;
69363;SDS011;56526;55.406;86.130;2022-10-30T04:40:22;11.90;;;9.93;;
69363;SDS011;56526;55.406;86.130;2022-10-30T04:42:50;13.27;;;9.27;;
69363;SDS011;56526;55.406;86.130;2022-10-30T04:45:17;11.10;;;9.82;;
69363;SDS011;56526;55.406;86.130;2022-10-30T04:47:43;9.50;;;7.60;;
69363;SDS011;56526;55.406;86.130;2022-10-30T04:50:10;12.23;;;8.85;;
69363;SDS011;56526;55.406;86.130;2022-10-30T04:52:37;7.18;;;6.63;;
69363;SDS011;56526;55.406;86.130;2022-10-30T04:55:04;14.95;;;6.82;;
69363;SDS011;56526;55.406;86.130;2022-10-30T04:57:32;10.25;;;8.93;;
69363;SDS011;56526;55.406;86.130;2022-10-30T04:59:58;9.70;;;5.53;;
69363;SDS011;56526;55.406;86.130;2022-10-30T05:02:25;10.52;;;9.50;;
69363;SDS011;56526;55.406;86.130;2022-10-30T05:04:51;12.07;;;9.48;;
69363;SDS011;56526;55.406;86.130;2022-10-30T05:07:17;13.50;;;8.55;;
69363;SDS011;56526;55.406;86.130;2022-10-30T05:09:44;11.00;;;8.07;;
69363;SDS011;56526;55.406;86.130;2022-10-30T05:12:10;15.23;;;10.23;;
69363;SDS011;56526;55.406;86.130;2022-10-30T05:14:36;17.85;;;8.70;;
69363;SDS011;56526;55.406;86.130;2022-10-30T05:17:04;11.90;;;9.18;;
69363;SDS011;56526;55.406;86.130;2022-10-30T05:19:33;9.18;;;6.15;;
69363;SDS011;56526;55.406;86.130;2022-10-30T05:21:59;14.30;;;9.23;;
69363;SDS011;56526;55.406;86.130;2022-10-30T05:24:25;8.52;;;7.10;;
69363;SDS011;56526;55.406;86.130;2022-10-30T05:26:51;11.98;;;7.45;;
69363;SDS011;56526;55.406;86.130;2022-10-30T05:29:18;12.48;;;8.25;;
69363;SDS011;56526;55.406;86.130;2022-10-30T05:31:44;10.45;;;6.07;;
69363;SDS011;56526;55.406;86.130;2022-10-30T05:34:10;7.78;;;5.45;;
69363;SDS011;56526;55.406;86.130;2022-10-30T05:36:36;12.38;;;8.15;;
69363;SDS011;56526;55.406;86.130;2022-10-30T05:39:02;8.30;;;6.63;;
69363;SDS011;56526;55.406;86.130;2022-10-30T05:41:29;10.93;;;7.72;;
69363;SDS011;56526;55.406;86.130;2022-10-30T05:43:55;11.40;;;9.23;;
69363;SDS011;56526;55.406;86.130;2022-10-30T05:46:21;11.80;;;9.32;;
69363;SDS011;56526;55.406;86.130;2022-10-30T05:48:47;12.60;;;6.25;;
69363;SDS011;56526;55.406;86.130;2022-10-30T05:51:14;15.98;;;9.18;;
69363;SDS011;56526;55.406;86.130;2022-10-30T05:53:40;12.32;;;9.98;;
69363;SDS011;56526;55.406;86.130;2022-10-30T05:56:06;10.45;;;8.90;;
69363;SDS011;56526;55.406;86.130;2022-10-30T05:58:32;9.85;;;5.75;;
69363;SDS011;56526;55.406;86.130;2022-10-30T06:00:58;10.60;;;9.05;;
69363;SDS011;56526;55.406;86.130;2022-10-30T06:03:25;11.90;;;5.90;;
69363;SDS011;56526;55.406;86.130;2022-10-30T06:05:51;11.25;;;9.95;;
69363;SDS011;56526;55.406;86.130;2022-10-30T06:08:17;11.55;;;9.02;;
69363;SDS011;56526;55.406;86.130;2022-10-30T06:10:44;11.75;;;10.60;;
69363;SDS011;56526;55.406;86.130;2022-10-30T06:13:10;8.43;;;7.40;;
69363;SDS011;56526;55.406;86.130;2022-10-30T06:15:36;8.40;;;5.60;;
69363;SDS011;56526;55.406;86.130;2022-10-30T06:18:03;9.02;;;6.00;;
69363;SDS011;56526;55.406;86.130;2022-10-30T06:20:29;11.57;;;6.03;;
69363;SDS011;56526;55.406;86.130;2022-10-30T06:23:00;11.63;;;9.07;;
69363;SDS011;56526;55.406;86.130;2022-10-30T06:25:33;13.20;;;10.30;;
69363;SDS011;56526;55.406;86.130;2022-10-30T06:28:00;12.90;;;9.43;;
69363;SDS011;56526;55.406;86.130;2022-10-30T06:30:27;10.88;;;8.95;;
69363;SDS011;56526;55.406;86.130;2022-10-30T06:33:01;12.45;;;11.25;;
69363;SDS011;56526;55.406;86.130;2022-10-30T06:35:29;12.30;;;8.52;;
69363;SDS011;56526;55.406;86.130;2022-10-30T06:37:56;9.77;;;7.95;;
69363;SDS011;56526;55.406;86.130;2022-10-30T06:40:23;6.53;;;4.65;;
69363;SDS011;56526;55.406;86.130;2022-10-30T06:42:50;10.73;;;8.15;;
69363;SDS011;56526;55.406;86.130;2022-10-30T06:45:19;6.00;;;3.58;;
69363;SDS011;56526;55.406;86.130;2022-10-30T06:47:48;13.15;;;7.82;;
69363;SDS011;56526;55.406;86.130;2022-10-30T06:50:16;8.60;;;7.68;;
69363;SDS011;56526;55.406;86.130;2022-10-30T06:52:44;9.60;;;7.50;;
69363;SDS011;56526;55.406;86.130;2022-10-30T06:55:10;7.78;;;7.15;;
69363;SDS011;56526;55.406;86.130;2022-10-30T06:57:40;9.25;;;7.22;;
69363;SDS011;56526;55.406;86.130;2022-10-30T07:00:06;7.10;;;6.25;;
69363;SDS011;56526;55.406;86.130;2022-10-30T07:02:36;7.50;;;6.90;;
69363;SDS011;56526;55.406;86.130;2022-10-30T07:05:03;7.55;;;6.85;;
69363;SDS011;56526;55.406;86.130;2022-10-30T07:07:32;7.80;;;7.00;;
69363;SDS011;56526;55.406;86.130;2022-10-30T07:09:58;11.23;;;8.98;;
69363;SDS011;56526;55.406;86.130;2022-10-30T07:12:24;8.45;;;7.65;;
69363;SDS011;56526;55.406;86.130;2022-10-30T07:14:51;9.05;;;8.15;;
69363;SDS011;56526;55.406;86.130;2022-10-30T07:17:17;9.27;;;7.80;;
69363;SDS011;56526;55.406;86.130;2022-10-30T07:19:43;10.27;;;7.85;;
69363;SDS011;56526;55.406;86.130;2022-10-30T07:22:10;8.00;;;4.35;;
69363;SDS011;56526;55.406;86.130;2022-10-30T07:24:36;7.25;;;6.10;;
69363;SDS011;56526;55.406;86.130;2022-10-30T07:27:04;3.28;;;2.65;;
69363;SDS011;56526;55.406;86.130;2022-10-30T07:29:30;10.60;;;8.32;;
69363;SDS011;56526;55.406;86.130;2022-10-30T07:31:56;10.63;;;7.88;;
69363;SDS011;56526;55.406;86.130;2022-10-30T07:34:22;6.95;;;6.38;;
69363;SDS011;56526;55.406;86.130;2022-10-30T07:36:49;8.63;;;6.90;;
69363;SDS011;56526;55.406;86.130;2022-10-30T07:39:15;4.05;;;2.67;;
69363;SDS011;56526;55.406;86.130;2022-10-30T07:41:41;10.52;;;7.18;;
69363;SDS011;56526;55.406;86.130;2022-10-30T07:44:07;9.05;;;8.25;;
69363;SDS011;56526;55.406;86.130;2022-10-30T07:46:33;7.72;;;6.97;;
69363;SDS011;56526;55.406;86.130;2022-10-30T07:49:00;8.73;;;6.63;;
69363;SDS011;56526;55.406;86.130;2022-10-30T07:51:26;5.20;;;3.88;;
69363;SDS011;56526;55.406;86.130;2022-10-30T07:53:52;5.82;;;5.13;;
69363;SDS011;56526;55.406;86.130;2022-10-30T07:56:18;5.45;;;4.07;;
69363;SDS011;56526;55.406;86.130;2022-10-30T07:58:45;12.52;;;7.28;;
69363;SDS011;56526;55.406;86.130;2022-10-30T08:01:11;7.72;;;6.97;;
69363;SDS011;56526;55.406;86.130;2022-10-30T08:03:37;7.90;;;6.80;;
69363;SDS011;56526;55.406;86.130;2022-10-30T08:06:03;6.10;;;5.60;;
69363;SDS011;56526;55.406;86.130;2022-10-30T08:08:29;8.40;;;5.32;;
69363;SDS011;56526;55.406;86.130;2022-10-30T08:10:56;4.95;;;4.05;;
69363;SDS011;56526;55.406;86.130;2022-10-30T08:13:22;7.88;;;5.03;;
69363;SDS011;56526;55.406;86.130;2022-10-30T08:15:48;6.05;;;5.63;;
69363;SDS011;56526;55.406;86.130;2022-10-30T08:18:14;9.63;;;8.73;;
69363;SDS011;56526;55.406;86.130;2022-10-30T08:20:40;6.70;;;6.07;;
69363;SDS011;56526;55.406;86.130;2022-10-30T08:23:07;7.55;;;6.90;;
69363;SDS011;56526;55.406;86.130;2022-10-30T08:25:33;5.85;;;4.65;;
69363;SDS011;56526;55.406;86.130;2022-10-30T08:28:01;6.78;;;3.50;;
69363;SDS011;56526;55.406;86.130;2022-10-30T08:30:31;9.27;;;7.55;;
69363;SDS011;56526;55.406;86.130;2022-10-30T08:33:00;7.35;;;6.75;;
69363;SDS011;56526;55.406;86.130;2022-10-30T08:35:32;5.88;;;5.43;;
69363;SDS011;56526;55.406;86.130;2022-10-30T08:37:59;9.57;;;8.77;;
69363;SDS011;56526;55.406;86.130;2022-10-30T08:40:25;4.28;;;3.13;;
69363;SDS011;56526;55.406;86.130;2022-10-30T08:42:52;7.10;;;3.30;;
69363;SDS011;56526;55.406;86.130;2022-10-30T08:45:25;6.03;;;5.53;;
69363;SDS011;56526;55.406;86.130;2022-10-30T08:48:03;5.45;;;3.17;;
69363;SDS011;56526;55.406;86.130;2022-10-30T08:50:31;6.85;;;6.35;;
69363;SDS011;56526;55.406;86.130;2022-10-30T08:53:02;7.50;;;7.00;;
69363;SDS011;56526;55.406;86.130;2022-10-30T08:55:31;8.82;;;8.18;;
69363;SDS011;56526;55.406;86.130;2022-10-30T08:57:58;10.73;;;10.23;;
69363;SDS011;56526;55.406;86.130;2022-10-30T09:00:24;8.05;;;7.30;;
69363;SDS011;56526;55.406;86.130;2022-10-30T09:02:51;5.80;;;5.38;;
69363;SDS011;56526;55.406;86.130;2022-10-30T09:05:18;8.00;;;6.60;;
69363;SDS011;56526;55.406;86.130;2022-10-30T09:07:45;7.63;;;4.70;;
69363;SDS011;56526;55.406;86.130;2022-10-30T09:10:12;6.40;;;6.03;;
69363;SDS011;56526;55.406;86.130;2022-10-30T09:12:39;2.67;;;2.33;;
69363;SDS011;56526;55.406;86.130;2022-10-30T09:15:05;6.45;;;6.00;;
69363;SDS011;56526;55.406;86.130;2022-10-30T09:17:32;7.20;;;6.68;;
69363;SDS011;56526;55.406;86.130;2022-10-30T09:19:58;6.97;;;6.38;;
69363;SDS011;56526;55.406;86.130;2022-10-30T09:22:24;5.63;;;5.15;;
69363;SDS011;56526;55.406;86.130;2022-10-30T09:24:51;6.75;;;3.58;;
69363;SDS011;56526;55.406;86.130;2022-10-30T09:27:17;5.57;;;5.28;;
69363;SDS011;56526;55.406;86.130;2022-10-30T09:29:43;6.65;;;6.10;;
69363;SDS011;56526;55.406;86.130;2022-10-30T09:32:11;1.85;;;1.70;;
69363;SDS011;56526;55.406;86.130;2022-10-30T09:34:37;3.67;;;3.03;;
69363;SDS011;56526;55.406;86.130;2022-10-30T09:37:03;7.35;;;5.53;;
69363;SDS011;56526;55.406;86.130;2022-10-30T09:39:29;4.53;;;3.30;;
69363;SDS011;56526;55.406;86.130;2022-10-30T09:51:21;6.93;;;6.45;;
69363;SDS011;56526;55.406;86.130;2022-10-30T10:05:46;8.45;;;7.63;;
69363;SDS011;56526;55.406;86.130;2022-10-30T10:08:21;7.10;;;6.43;;
69363;SDS011;56526;55.406;86.130;2022-10-30T10:11:00;8.32;;;7.40;;
69363;SDS011;56526;55.406;86.130;2022-10-30T10:22:31;7.55;;;6.93;;
69363;SDS011;56526;55.406;86.130;2022-10-30T10:24:56;6.70;;;6.07;;
69363;SDS011;56526;55.406;86.130;2022-10-30T10:30:07;9.20;;;8.32;;
69363;SDS011;56526;55.406;86.130;2022-10-30T10:44:41;11.07;;;7.13;;
69363;SDS011;56526;55.406;86.130;2022-10-30T10:47:24;6.88;;;6.47;;
69363;SDS011;56526;55.406;86.130;2022-10-30T10:50:28;7.90;;;7.10;;
69363;SDS011;56526;55.406;86.130;2022-10-30T10:56:02;8.52;;;7.93;;
69363;SDS011;56526;55.406;86.130;2022-10-30T10:58:37;9.32;;;8.30;;
69363;SDS011;56526;55.406;86.130;2022-10-30T11:01:28;5.43;;;3.20;;
69363;SDS011;56526;55.406;86.130;2022-10-30T11:04:02;3.83;;;3.25;;
69363;SDS011;56526;55.406;86.130;2022-10-30T11:06:45;6.85;;;6.30;;
69363;SDS011;56526;55.406;86.130;2022-10-30T11:09:16;9.00;;;8.10;;
69363;SDS011;56526;55.406;86.130;2022-10-30T11:11:47;6.78;;;6.15;;
69363;SDS011;56526;55.406;86.130;2022-10-30T11:14:19;7.53;;;6.82;;
69363;SDS011;56526;55.406;86.130;2022-10-30T11:16:57;8.77;;;7.55;;
69363;SDS011;56526;55.406;86.130;2022-10-30T11:19:47;10.68;;;9.27;;
69363;SDS011;56526;55.406;86.130;2022-10-30T11:22:43;9.32;;;8.60;;
69363;SDS011;56526;55.406;86.130;2022-10-30T11:25:18;13.35;;;10.45;;
69363;SDS011;56526;55.406;86.130;2022-10-30T11:27:49;6.88;;;6.43;;
69363;SDS011;56526;55.406;86.130;2022-10-30T11:30:22;7.07;;;5.68;;
69363;SDS011;56526;55.406;86.130;2022-10-30T11:32:51;9.18;;;6.47;;
69363;SDS011;56526;55.406;86.130;2022-10-30T11:35:18;5.20;;;4.78;;
69363;SDS011;56526;55.406;86.130;2022-10-30T11:37:49;6.18;;;5.88;;
69363;SDS011;56526;55.406;86.130;2022-10-30T11:40:21;2.72;;;2.30;;
69363;SDS011;56526;55.406;86.130;2022-10-30T11:42:58;4.03;;;2.72;;
69363;SDS011;56526;55.406;86.130;2022-10-30T11:45:29;6.45;;;5.82;;
69363;SDS011;56526;55.406;86.130;2022-10-30T11:47:59;5.97;;;5.15;;
69363;SDS011;56526;55.406;86.130;2022-10-30T11:50:27;7.40;;;7.00;;
69363;SDS011;56526;55.406;86.130;2022-10-30T11:52:58;6.55;;;6.15;;
69363;SDS011;56526;55.406;86.130;2022-10-30T11:55:30;4.53;;;3.00;;
69363;SDS011;56526;55.406;86.130;2022-10-30T11:58:03;5.90;;;5.50;;
69363;SDS011;56526;55.406;86.130;2022-10-30T12:00:31;5.70;;;5.28;;
69363;SDS011;56526;55.406;86.130;2022-10-30T12:03:01;8.07;;;7.53;;
69363;SDS011;56526;55.406;86.130;2022-10-30T12:06:05;8.43;;;7.32;;
69363;SDS011;56526;55.406;86.130;2022-10-30T12:09:02;4.47;;;2.78;;
69363;SDS011;56526;55.406;86.130;2022-10-30T12:11:53;10.05;;;8.95;;
69363;SDS011;56526;55.406;86.130;2022-10-30T12:14:20;7.95;;;7.30;;
69363;SDS011;56526;55.406;86.130;2022-10-30T12:16:49;4.45;;;3.38;;
69363;SDS011;56526;55.406;86.130;2022-10-30T12:19:18;9.65;;;6.63;;
69363;SDS011;56526;55.406;86.130;2022-10-30T12:21:47;7.45;;;3.08;;
69363;SDS011;56526;55.406;86.130;2022-10-30T12:24:17;10.57;;;7.72;;
69363;SDS011;56526;55.406;86.130;2022-10-30T12:27:10;10.30;;;9.48;;
69363;SDS011;56526;55.406;86.130;2022-10-30T12:29:45;8.10;;;4.18;;
69363;SDS011;56526;55.406;86.130;2022-10-30T12:32:23;9.40;;;8.65;;
69363;SDS011;56526;55.406;86.130;2022-10-30T12:35:04;9.15;;;8.32;;
69363;SDS011;56526;55.406;86.130;2022-10-30T12:37:44;8.57;;;7.85;;
69363;SDS011;56526;55.406;86.130;2022-10-30T12:40:17;8.35;;;7.53;;
69363;SDS011;56526;55.406;86.130;2022-10-30T12:42:54;15.55;;;7.32;;
69363;SDS011;56526;55.406;86.130;2022-10-30T12:45:43;7.30;;;6.70;;
69363;SDS011;56526;55.406;86.130;2022-10-30T12:51:39;9.90;;;9.07;;
69363;SDS011;56526;55.406;86.130;2022-10-30T12:57:07;9.65;;;7.90;;
69363;SDS011;56526;55.406;86.130;2022-10-30T13:02:54;5.00;;;3.75;;
69363;SDS011;56526;55.406;86.130;2022-10-30T13:05:53;6.35;;;1.92;;
69363;SDS011;56526;55.406;86.130;2022-10-30T13:11:46;5.25;;;3.47;;
69363;SDS011;56526;55.406;86.130;2022-10-30T13:14:31;9.13;;;8.40;;
69363;SDS011;56526;55.406;86.130;2022-10-30T13:17:23;6.30;;;5.88;;
69363;SDS011;56526;55.406;86.130;2022-10-30T13:19:49;5.30;;;3.45;;
69363;SDS011;56526;55.406;86.130;2022-10-30T13:30:38;10.85;;;10.07;;
69363;SDS011;56526;55.406;86.130;2022-10-30T13:33:16;7.35;;;6.82;;
69363;SDS011;56526;55.406;86.130;2022-10-30T13:36:04;7.57;;;6.90;;
69363;SDS011;56526;55.406;86.130;2022-10-30T13:41:43;8.13;;;7.38;;
69363;SDS011;56526;55.406;86.130;2022-10-30T13:44:33;12.05;;;8.45;;
69363;SDS011;56526;55.406;86.130;2022-10-30T13:47:54;12.40;;;9.48;;
69363;SDS011;56526;55.406;86.130;2022-10-30T13:53:48;3.40;;;3.13;;
69363;SDS011;56526;55.406;86.130;2022-10-30T13:56:53;8.10;;;7.22;;
69363;SDS011;56526;55.406;86.130;2022-10-30T13:59:27;6.93;;;6.25;;
69363;SDS011;56526;55.406;86.130;2022-10-30T14:10:45;8.15;;;7.20;;
69363;SDS011;56526;55.406;86.130;2022-10-30T14:13:16;9.98;;;3.55;;
69363;SDS011;56526;55.406;86.130;2022-10-30T14:15:48;3.35;;;2.72;;
69363;SDS011;56526;55.406;86.130;2022-10-30T14:18:29;6.60;;;6.10;;
69363;SDS011;56526;55.406;86.130;2022-10-30T14:24:17;7.47;;;6.38;;
69363;SDS011;56526;55.406;86.130;2022-10-30T14:32:00;8.50;;;7.97;;
69363;SDS011;56526;55.406;86.130;2022-10-30T14:34:41;5.97;;;5.50;;
69363;SDS011;56526;55.406;86.130;2022-10-30T14:39:50;7.80;;;7.20;;
69363;SDS011;56526;55.406;86.130;2022-10-30T14:45:28;5.78;;;5.32;;
69363;SDS011;56526;55.406;86.130;2022-10-30T14:48:22;6.20;;;5.60;;
69363;SDS011;56526;55.406;86.130;2022-10-30T14:56:33;7.07;;;6.55;;
69363;SDS011;56526;55.406;86.130;2022-10-30T15:01:44;11.70;;;6.85;;
69363;SDS011;56526;55.406;86.130;2022-10-30T15:04:35;6.18;;;5.78;;
69363;SDS011;56526;55.406;86.130;2022-10-30T15:12:57;8.23;;;7.65;;
69363;SDS011;56526;55.406;86.130;2022-10-30T15:18:25;5.47;;;4.95;;
69363;SDS011;56526;55.406;86.130;2022-10-30T15:20:52;8.52;;;7.85;;
69363;SDS011;56526;55.406;86.130;2022-10-30T15:23:26;8.20;;;7.38;;
69363;SDS011;56526;55.406;86.130;2022-10-30T15:25:55;2.65;;;2.42;;
69363;SDS011;56526;55.406;86.130;2022-10-30T15:28:31;10.43;;;9.40;;
69363;SDS011;56526;55.406;86.130;2022-10-30T15:33:48;6.60;;;5.85;;
69363;SDS011;56526;55.406;86.130;2022-10-30T15:36:15;7.30;;;6.63;;
69363;SDS011;56526;55.406;86.130;2022-10-30T15:38:44;5.00;;;4.70;;
69363;SDS011;56526;55.406;86.130;2022-10-30T15:41:46;8.18;;;6.10;;
69363;SDS011;56526;55.406;86.130;2022-10-30T15:44:23;7.60;;;6.93;;
69363;SDS011;56526;55.406;86.130;2022-10-30T15:47:00;5.80;;;5.50;;
69363;SDS011;56526;55.406;86.130;2022-10-30T15:49:29;2.28;;;1.90;;
69363;SDS011;56526;55.406;86.130;2022-10-30T15:52:01;5.35;;;5.05;;
69363;SDS011;56526;55.406;86.130;2022-10-30T15:54:40;2.78;;;2.53;;
69363;SDS011;56526;55.406;86.130;2022-10-30T15:57:15;5.57;;;5.28;;
69363;SDS011;56526;55.406;86.130;2022-10-30T15:59:49;1.75;;;1.65;;
69363;SDS011;56526;55.406;86.130;2022-10-30T16:02:23;6.50;;;6.15;;
69363;SDS011;56526;55.406;86.130;2022-10-30T16:04:50;7.28;;;6.82;;
69363;SDS011;56526;55.406;86.130;2022-10-30T16:07:21;5.88;;;5.43;;
69363;SDS011;56526;55.406;86.130;2022-10-30T16:09:57;5.72;;;5.30;;
69363;SDS011;56526;55.406;86.130;2022-10-30T16:12:25;5.82;;;5.43;;
69363;SDS011;56526;55.406;86.130;2022-10-30T16:14:55;7.32;;;6.82;;
69363;SDS011;56526;55.406;86.130;2022-10-30T16:17:25;4.97;;;2.85;;
69363;SDS011;56526;55.406;86.130;2022-10-30T16:19:53;6.85;;;6.35;;
69363;SDS011;56526;55.406;86.130;2022-10-30T16:22:28;5.53;;;5.22;;
69363;SDS011;56526;55.406;86.130;2022-10-30T16:25:01;6.85;;;6.22;;
69363;SDS011;56526;55.406;86.130;2022-10-30T16:27:32;6.05;;;5.63;;
69363;SDS011;56526;55.406;86.130;2022-10-30T16:29:58;6.47;;;6.07;;
69363;SDS011;56526;55.406;86.130;2022-10-30T16:32:28;6.70;;;6.18;;
69363;SDS011;56526;55.406;86.130;2022-10-30T16:34:56;5.70;;;5.22;;
69363;SDS011;56526;55.406;86.130;2022-10-30T16:37:25;6.70;;;6.30;;
69363;SDS011;56526;55.406;86.130;2022-10-30T16:40:01;3.38;;;3.00;;
69363;SDS011;56526;55.406;86.130;2022-10-30T16:42:44;6.78;;;6.30;;
69363;SDS011;56526;55.406;86.130;2022-10-30T16:47:43;5.97;;;5.57;;
69363;SDS011;56526;55.406;86.130;2022-10-30T16:50:13;7.63;;;6.93;;
69363;SDS011;56526;55.406;86.130;2022-10-30T16:52:41;6.50;;;6.00;;
69363;SDS011;56526;55.406;86.130;2022-10-30T16:57:48;7.65;;;7.15;;
69363;SDS011;56526;55.406;86.130;2022-10-30T17:00:20;4.63;;;4.43;;
69363;SDS011;56526;55.406;86.130;2022-10-30T17:02:51;5.90;;;5.50;;
69363;SDS011;56526;55.406;86.130;2022-10-30T17:05:22;7.90;;;7.40;;
69363;SDS011;56526;55.406;86.130;2022-10-30T17:08:06;5.00;;;4.80;;
69363;SDS011;56526;55.406;86.130;2022-10-30T17:16:22;6.25;;;5.85;;
69363;SDS011;56526;55.406;86.130;2022-10-30T17:18:56;5.38;;;4.93;;